Time;durP1;ratioP1;P1;durP2;ratioP2;P2;SDS_P1;SDS_P2;PMS_P1;PMS_P2;Temp;Humidity;BMP_temperature;BMP_pressure;BME280_temperature;BME280_humidity;BME280_pressure;Samples;Min_cycle;Max_cycle;Signal;HPM_P1;HPM_P2
2022/09/20 00:00:44;;;;;;;0.00;0.00;;;7.30;99.90;;;;;;5071470;28;20388;-80
2022/09/20 00:03:11;;;;;;;0.00;0.00;;;7.10;99.90;;;;;;5070556;28;20483;-79
2022/09/20 00:05:38;;;;;;;0.00;0.00;;;7.00;99.90;;;;;;5068900;28;20524;-78
2022/09/20 00:08:06;;;;;;;0.00;0.00;;;7.00;99.90;;;;;;5075127;28;20109;-79
2022/09/20 00:10:35;;;;;;;0.52;0.52;;;6.90;99.90;;;;;;5090304;28;20095;-78
2022/09/20 00:13:01;;;;;;;0.00;0.00;;;6.90;99.90;;;;;;5072308;28;20551;-79
2022/09/20 00:15:28;;;;;;;0.00;0.00;;;6.90;99.90;;;;;;5089862;28;20418;-79
2022/09/20 00:17:53;;;;;;;0.00;0.00;;;6.90;99.90;;;;;;5086440;28;20041;-79
2022/09/20 00:20:19;;;;;;;0.00;0.00;;;7.00;99.90;;;;;;5069118;28;20119;-79
2022/09/20 00:22:48;;;;;;;0.55;0.40;;;6.90;99.90;;;;;;5069597;28;20044;-79
2022/09/20 00:25:17;;;;;;;0.00;0.00;;;6.90;99.90;;;;;;5070405;28;20419;-79
2022/09/20 00:27:44;;;;;;;0.00;0.00;;;6.90;99.90;;;;;;5072979;28;20481;-79
2022/09/20 00:30:11;;;;;;;0.10;0.10;;;6.90;99.90;;;;;;5089908;28;20051;-79
2022/09/20 00:32:37;;;;;;;0.05;0.05;;;6.90;99.90;;;;;;5090064;28;20047;-78
2022/09/20 00:35:06;;;;;;;0.25;0.25;;;6.80;99.90;;;;;;5091524;28;20044;-79
2022/09/20 00:37:33;;;;;;;0.35;0.28;;;6.70;99.90;;;;;;5090438;28;20036;-80
2022/09/20 00:40:00;;;;;;;0.00;0.00;;;6.70;99.90;;;;;;5074719;28;20111;-78
2022/09/20 00:42:27;;;;;;;0.00;0.00;;;6.70;99.90;;;;;;5092306;28;20043;-79
2022/09/20 00:45:05;;;;;;;0.00;0.00;;;6.80;99.90;;;;;;5092125;28;20051;-79
2022/09/20 00:47:51;;;;;;;0.00;0.00;;;6.70;99.90;;;;;;5090458;28;20048;-79
2022/09/20 00:50:30;;;;;;;0.03;0.03;;;6.70;99.90;;;;;;5055156;28;20416;-79
2022/09/20 00:53:08;;;;;;;0.00;0.00;;;6.60;99.90;;;;;;5071405;28;20291;-79
2022/09/20 00:55:39;;;;;;;0.05;0.05;;;6.70;99.90;;;;;;5070771;28;20176;-79
2022/09/20 00:58:05;;;;;;;0.00;0.00;;;6.70;99.90;;;;;;5070652;28;20048;-80
2022/09/20 01:00:31;;;;;;;0.28;0.28;;;6.60;99.90;;;;;;5071241;28;20036;-80
2022/09/20 01:03:02;;;;;;;0.30;0.08;;;6.50;99.90;;;;;;5070698;28;20385;-79
2022/09/20 01:05:28;;;;;;;0.00;0.00;;;6.40;99.90;;;;;;5070690;28;20570;-80
2022/09/20 01:07:55;;;;;;;0.00;0.00;;;6.40;99.90;;;;;;5070605;28;20515;-78
2022/09/20 01:10:21;;;;;;;0.00;0.00;;;6.40;99.90;;;;;;5070446;28;20048;-79
2022/09/20 01:12:49;;;;;;;0.00;0.00;;;6.30;99.90;;;;;;5070342;28;20100;-80
2022/09/20 01:15:14;;;;;;;0.00;0.00;;;6.40;99.90;;;;;;5069986;28;20083;-79
2022/09/20 01:17:46;;;;;;;0.00;0.00;;;6.30;99.90;;;;;;5070112;28;20083;-79
2022/09/20 01:20:18;;;;;;;0.00;0.00;;;6.20;99.90;;;;;;5069149;28;20053;-78
2022/09/20 01:23:12;;;;;;;0.00;0.00;;;6.20;99.90;;;;;;5070432;28;20044;-79
2022/09/20 01:25:53;;;;;;;0.00;0.00;;;6.10;99.90;;;;;;5045145;28;20079;-79
2022/09/20 01:28:19;;;;;;;0.00;0.00;;;6.00;99.90;;;;;;5074927;28;20127;-81
2022/09/20 01:31:00;;;;;;;0.00;0.00;;;6.00;99.90;;;;;;5072617;28;20052;-79
2022/09/20 01:33:58;;;;;;;0.00;0.00;;;5.90;99.90;;;;;;5050778;28;20049;-79
2022/09/20 01:36:38;;;;;;;0.00;0.00;;;5.80;99.90;;;;;;5051220;28;20091;-79
2022/09/20 01:39:11;;;;;;;0.00;0.00;;;5.90;99.90;;;;;;5071237;28;20040;-79
2022/09/20 01:41:45;;;;;;;0.00;0.00;;;5.90;99.90;;;;;;5088239;28;20066;-79
2022/09/20 01:44:44;;;;;;;3.42;1.75;;;5.90;99.90;;;;;;5093414;28;20054;-79
2022/09/20 01:47:36;;;;;;;0.95;0.28;;;6.00;99.90;;;;;;5093467;28;20082;-79
2022/09/20 01:50:13;;;;;;;0.00;0.00;;;6.00;99.90;;;;;;5074377;28;20402;-79
2022/09/20 01:53:27;;;;;;;0.00;0.00;;;6.00;99.90;;;;;;5071514;28;20048;-80
2022/09/20 01:56:37;;;;;;;0.00;0.00;;;6.00;99.90;;;;;;5100374;22;20042;-78
2022/09/20 01:59:37;;;;;;;0.00;0.00;;;6.00;99.90;;;;;;5090175;28;20041;-79
2022/09/20 02:02:47;;;;;;;0.05;0.05;;;6.00;99.90;;;;;;5096258;28;20074;-78
2022/09/20 02:05:33;;;;;;;0.15;0.15;;;6.00;99.90;;;;;;5090248;28;20088;-75
2022/09/20 02:08:13;;;;;;;0.00;0.00;;;5.90;99.90;;;;;;5090716;28;20044;-76
2022/09/20 02:10:57;;;;;;;0.00;0.00;;;5.90;99.90;;;;;;5100510;28;20055;-82
2022/09/20 02:13:28;;;;;;;0.00;0.00;;;5.80;99.90;;;;;;5099883;28;20044;-78
2022/09/20 02:16:00;;;;;;;0.00;0.00;;;5.70;99.90;;;;;;5099753;28;20073;-77
2022/09/20 02:18:59;;;;;;;0.00;0.00;;;5.70;99.90;;;;;;5097155;28;20044;-77
2022/09/20 02:21:33;;;;;;;0.00;0.00;;;5.60;99.90;;;;;;5101512;28;20496;-79
2022/09/20 02:24:18;;;;;;;0.00;0.00;;;5.60;99.90;;;;;;5103402;28;20055;-78
2022/09/20 02:27:02;;;;;;;0.00;0.00;;;5.50;99.90;;;;;;5083300;28;20385;-75
2022/09/20 02:29:55;;;;;;;1.65;0.98;;;5.40;99.90;;;;;;5099844;28;20350;-77
2022/09/20 02:32:45;;;;;;;0.00;0.00;;;5.50;99.90;;;;;;5080735;28;20053;-78
2022/09/20 02:35:11;;;;;;;0.60;0.47;;;5.40;99.90;;;;;;5079105;28;20489;-77
2022/09/20 02:37:58;;;;;;;0.00;0.00;;;5.30;99.90;;;;;;5084987;28;20035;-78
2022/09/20 02:40:45;;;;;;;0.00;0.00;;;5.30;99.90;;;;;;5101650;28;20052;-77
2022/09/20 02:43:37;;;;;;;0.00;0.00;;;5.30;99.90;;;;;;5106602;28;20044;-78
2022/09/20 02:46:19;;;;;;;0.00;0.00;;;5.20;99.90;;;;;;5102472;28;20051;-76
2022/09/20 02:48:58;;;;;;;0.00;0.00;;;5.20;99.90;;;;;;5096882;28;20584;-75
2022/09/20 02:51:34;;;;;;;0.00;0.00;;;5.10;99.90;;;;;;5097717;28;20048;-78
2022/09/20 02:54:15;;;;;;;;;;;5.10;99.90;;;;;;5097768;28;20040;-78
2022/09/20 02:57:01;;;;;;;0.00;0.00;;;5.10;99.90;;;;;;5100722;28;19971;-78
2022/09/20 02:59:43;;;;;;;0.15;0.15;;;5.00;99.90;;;;;;5101321;28;20213;-78
2022/09/20 03:02:26;;;;;;;0.00;0.00;;;5.00;99.90;;;;;;5100285;28;20443;-77
2022/09/20 03:05:02;;;;;;;0.57;0.45;;;5.00;99.90;;;;;;5097452;28;20052;-77
2022/09/20 03:07:52;;;;;;;0.00;0.00;;;5.00;99.90;;;;;;5084792;28;20048;-76
2022/09/20 03:10:50;;;;;;;0.00;0.00;;;5.00;99.90;;;;;;5101159;28;20051;-78
2022/09/20 03:13:34;;;;;;;0.00;0.00;;;4.90;99.90;;;;;;5105151;28;20178;-77
2022/09/20 03:16:23;;;;;;;0.00;0.00;;;4.90;99.90;;;;;;5102382;28;20428;-77
2022/09/20 03:19:26;;;;;;;0.00;0.00;;;4.90;99.90;;;;;;5098831;28;20054;-77
2022/09/20 03:22:04;;;;;;;0.00;0.00;;;4.90;99.90;;;;;;5097599;28;20473;-77
2022/09/20 03:24:51;;;;;;;0.00;0.00;;;4.90;99.90;;;;;;5094918;28;20265;-76
2022/09/20 03:27:32;;;;;;;0.00;0.00;;;5.00;99.90;;;;;;5098003;28;20055;-77
2022/09/20 03:30:16;;;;;;;0.00;0.00;;;5.00;99.90;;;;;;5100101;28;20051;-76
2022/09/20 03:33:21;;;;;;;0.00;0.00;;;5.00;99.90;;;;;;5098909;28;20670;-76
2022/09/20 03:36:12;;;;;;;0.00;0.00;;;5.00;99.90;;;;;;5095330;28;20278;-78
2022/09/20 03:39:00;;;;;;;0.00;0.00;;;5.00;99.90;;;;;;5098883;28;20462;-76
2022/09/20 03:41:56;;;;;;;0.00;0.00;;;5.00;99.90;;;;;;5082258;28;20059;-77
2022/09/20 03:44:51;;;;;;;0.00;0.00;;;5.00;99.90;;;;;;5098763;28;20114;-77
2022/09/20 03:47:35;;;;;;;0.00;0.00;;;5.00;99.90;;;;;;5082565;28;20055;-78
2022/09/20 03:50:16;;;;;;;0.00;0.00;;;5.00;99.90;;;;;;5080277;28;20044;-79
2022/09/20 03:53:05;;;;;;;0.00;0.00;;;5.00;99.90;;;;;;5077645;28;20053;-77
2022/09/20 03:56:02;;;;;;;0.08;0.08;;;5.00;99.90;;;;;;5076489;28;20058;-78
2022/09/20 03:58:43;;;;;;;0.08;0.08;;;5.00;99.90;;;;;;5084743;28;20073;-76
2022/09/20 04:01:23;;;;;;;0.00;0.00;;;5.00;99.90;;;;;;5097605;28;20190;-77
2022/09/20 04:04:24;;;;;;;0.00;0.00;;;5.00;99.90;;;;;;5098253;28;20056;-76
2022/09/20 04:07:02;;;;;;;0.00;0.00;;;5.00;99.90;;;;;;5095670;28;20051;-77
2022/09/20 04:09:46;;;;;;;0.20;0.10;;;5.00;99.90;;;;;;5095119;28;20444;-76
2022/09/20 04:12:26;;;;;;;0.00;0.00;;;5.10;99.90;;;;;;5091614;28;20910;-76
2022/09/20 04:15:03;;;;;;;0.00;0.00;;;5.30;99.90;;;;;;5092669;28;20364;-76
2022/09/20 04:17:44;;;;;;;0.00;0.00;;;5.40;99.90;;;;;;5094941;28;20044;-76
2022/09/20 04:20:15;;;;;;;0.00;0.00;;;5.50;99.90;;;;;;5100519;28;20119;-76
2022/09/20 04:22:43;;;;;;;0.00;0.00;;;5.70;99.90;;;;;;5092985;28;20052;-79
2022/09/20 04:25:18;;;;;;;0.00;0.00;;;5.80;99.90;;;;;;5095943;28;20101;-77
2022/09/20 04:28:04;;;;;;;0.00;0.00;;;5.90;99.90;;;;;;5079373;28;20060;-77
2022/09/20 04:30:36;;;;;;;0.00;0.00;;;6.20;99.90;;;;;;5100512;28;20048;-76
2022/09/20 04:33:29;;;;;;;0.60;0.57;;;6.30;99.90;;;;;;5080444;28;20042;-80
2022/09/20 04:36:27;;;;;;;0.00;0.00;;;6.40;99.90;;;;;;5096963;28;20052;-78
2022/09/20 04:39:22;;;;;;;0.00;0.00;;;6.60;99.90;;;;;;5095950;28;20048;-77
2022/09/20 04:42:01;;;;;;;0.82;0.80;;;6.70;99.90;;;;;;5096249;28;20048;-77
2022/09/20 04:44:42;;;;;;;0.70;0.70;;;6.80;99.90;;;;;;5095435;28;20047;-78
2022/09/20 04:47:07;;;;;;;0.00;0.00;;;6.90;99.90;;;;;;5097571;28;20052;-76
2022/09/20 04:49:54;;;;;;;0.00;0.00;;;6.90;99.90;;;;;;5096959;28;20059;-77
2022/09/20 04:52:22;;;;;;;0.00;0.00;;;7.00;99.90;;;;;;5097544;28;20043;-78
2022/09/20 04:55:13;;;;;;;0.35;0.25;;;7.00;99.90;;;;;;5081720;28;20052;-77
2022/09/20 04:58:13;;;;;;;0.00;0.00;;;7.00;99.90;;;;;;5096877;28;20056;-76
2022/09/20 05:00:51;;;;;;;0.22;0.22;;;7.00;99.90;;;;;;5075999;28;20221;-78
2022/09/20 05:03:21;;;;;;;0.43;0.38;;;6.90;99.90;;;;;;5090583;28;20055;-78
2022/09/20 05:05:54;;;;;;;0.55;0.55;;;6.80;99.90;;;;;;5094709;28;20044;-75
2022/09/20 05:08:39;;;;;;;0.00;0.00;;;6.80;99.90;;;;;;5091635;28;20056;-77
2022/09/20 05:11:11;;;;;;;0.00;0.00;;;6.70;99.90;;;;;;5090374;28;20075;-76
2022/09/20 05:13:58;;;;;;;0.00;0.00;;;6.70;99.90;;;;;;5089276;28;20044;-74
2022/09/20 05:17:00;;;;;;;0.70;0.45;;;6.60;99.90;;;;;;5090655;28;20077;-77
2022/09/20 05:19:53;;;;;;;0.00;0.00;;;6.60;99.90;;;;;;5092730;28;20048;-77
2022/09/20 05:22:55;;;;;;;0.75;0.75;;;6.60;99.90;;;;;;5090985;28;20036;-76
2022/09/20 05:25:21;;;;;;;0.00;0.00;;;6.60;99.90;;;;;;5074422;28;20049;-78
2022/09/20 05:28:01;;;;;;;0.00;0.00;;;6.60;99.90;;;;;;5072255;28;20123;-76
2022/09/20 05:30:44;;;;;;;0.00;0.00;;;6.70;99.90;;;;;;5072881;28;20041;-77
2022/09/20 05:33:45;;;;;;;0.00;0.00;;;6.80;99.90;;;;;;5071896;28;20049;-77
2022/09/20 05:36:21;;;;;;;0.00;0.00;;;6.90;99.90;;;;;;5073593;28;20110;-76
2022/09/20 05:38:53;;;;;;;;;;;7.00;99.90;;;;;;5076651;28;20062;-77
2022/09/20 05:41:36;;;;;;;0.00;0.00;;;7.10;99.90;;;;;;5075865;28;19932;-77
2022/09/20 05:44:08;;;;;;;0.70;0.63;;;7.30;99.90;;;;;;5078447;28;20044;-77
2022/09/20 05:46:52;;;;;;;0.00;0.00;;;7.50;99.90;;;;;;5078747;28;20049;-78
2022/09/20 05:49:56;;;;;;;1.55;1.45;;;7.60;99.90;;;;;;5079947;28;20101;-77
2022/09/20 05:52:44;;;;;;;0.00;0.00;;;7.80;99.90;;;;;;5038760;28;20063;-76
2022/09/20 05:55:47;;;;;;;0.00;0.00;;;8.10;99.90;;;;;;5078323;28;20041;-78
2022/09/20 05:58:28;;;;;;;1.60;0.32;;;8.20;99.90;;;;;;5059889;28;20045;-76
2022/09/20 06:01:11;;;;;;;0.57;0.57;;;8.30;99.90;;;;;;5079340;28;20076;-77
2022/09/20 06:04:04;;;;;;;0.55;0.47;;;8.50;99.90;;;;;;5064298;28;20079;-78
2022/09/20 06:06:49;;;;;;;0.00;0.00;;;8.60;99.90;;;;;;5079142;28;20041;-78
2022/09/20 06:09:40;;;;;;;0.00;0.00;;;8.70;99.90;;;;;;5092334;28;20049;-78
2022/09/20 06:12:15;;;;;;;5.68;0.65;;;8.80;99.90;;;;;;5090713;28;20047;-78
2022/09/20 06:14:47;;;;;;;0.80;0.80;;;8.90;99.90;;;;;;5106480;28;20502;-79
2022/09/20 06:17:32;;;;;;;0.00;0.00;;;8.90;99.90;;;;;;5093534;28;20051;-77
2022/09/20 06:20:16;;;;;;;0.00;0.00;;;8.90;99.90;;;;;;5095504;28;20025;-77
2022/09/20 06:22:46;;;;;;;0.30;0.20;;;9.00;99.90;;;;;;5091981;28;20098;-78
2022/09/20 06:25:19;;;;;;;0.00;0.00;;;8.90;99.90;;;;;;5095302;28;20074;-76
2022/09/20 06:27:55;;;;;;;0.00;0.00;;;8.90;99.90;;;;;;5076227;28;20345;-79
2022/09/20 06:30:30;;;;;;;0.10;0.10;;;8.80;99.90;;;;;;5075718;28;20379;-78
2022/09/20 06:33:12;;;;;;;0.03;0.03;;;8.70;99.90;;;;;;5094370;28;20044;-78
2022/09/20 06:41:25;;;;;;;0.00;0.00;;;8.60;99.90;;;;;;5093124;28;20052;-79
2022/09/20 06:42:05;;;;;;;0.00;0.00;;;8.60;99.90;;;;;;5093938;28;20047;-77
2022/09/20 06:44:31;;;;;;;0.00;0.00;;;8.80;99.90;;;;;;5079047;28;20045;-78
2022/09/20 06:46:56;;;;;;;0.00;0.00;;;9.00;99.90;;;;;;5105600;28;20039;-79
2022/09/20 06:49:27;;;;;;;0.22;0.22;;;9.10;99.90;;;;;;5105638;28;20092;-76
2022/09/20 06:51:54;;;;;;;0.00;0.00;;;9.40;99.90;;;;;;5094833;28;20077;-77
2022/09/20 06:54:21;;;;;;;0.00;0.00;;;9.70;99.90;;;;;;5096456;28;20096;-77
2022/09/20 06:56:49;;;;;;;0.00;0.00;;;10.10;99.90;;;;;;5096399;28;20063;-78
2022/09/20 06:59:15;;;;;;;0.00;0.00;;;10.40;99.90;;;;;;5096838;28;20052;-77
2022/09/20 07:01:41;;;;;;;0.00;0.00;;;10.70;99.90;;;;;;5092570;28;20135;-78
2022/09/20 07:04:08;;;;;;;0.00;0.00;;;10.80;99.90;;;;;;5096154;28;20040;-77
2022/09/20 07:06:34;;;;;;;0.95;0.63;;;10.90;99.90;;;;;;5072380;28;20087;-76
2022/09/20 07:09:00;;;;;;;0.10;0.08;;;11.00;99.90;;;;;;5089181;28;20427;-77
2022/09/20 07:11:26;;;;;;;2.22;0.75;;;11.00;99.90;;;;;;5089436;28;20050;-77
2022/09/20 07:13:53;;;;;;;0.03;0.00;;;11.00;99.90;;;;;;5088863;28;20047;-76
2022/09/20 07:16:19;;;;;;;0.00;0.00;;;11.10;99.90;;;;;;5088714;28;20123;-77
2022/09/20 07:18:46;;;;;;;0.00;0.00;;;11.10;99.90;;;;;;5088113;28;20047;-76
2022/09/20 07:21:14;;;;;;;0.00;0.00;;;11.10;99.90;;;;;;5093725;28;20070;-78
2022/09/20 07:23:39;;;;;;;0.25;0.25;;;11.10;99.90;;;;;;5092623;28;20104;-79
2022/09/20 07:26:06;;;;;;;4.18;1.15;;;11.00;99.90;;;;;;5093329;28;20080;-77
2022/09/20 07:28:33;;;;;;;0.00;0.00;;;11.00;99.90;;;;;;5097033;28;20391;-76
2022/09/20 07:31:00;;;;;;;0.00;0.00;;;11.00;99.90;;;;;;5082111;28;20051;-79
2022/09/20 07:33:25;;;;;;;0.30;0.22;;;11.10;99.90;;;;;;5100549;28;20059;-78
2022/09/20 07:35:54;;;;;;;0.00;0.00;;;11.20;99.90;;;;;;5099168;28;20119;-78
2022/09/20 07:38:21;;;;;;;0.00;0.00;;;11.30;99.90;;;;;;5099485;28;20099;-77
2022/09/20 07:41:01;;;;;;;0.00;0.00;;;11.50;99.90;;;;;;5099504;28;20089;-79
2022/09/20 07:43:28;;;;;;;0.00;0.00;;;11.70;99.90;;;;;;5099781;28;20051;-79
2022/09/20 07:45:55;;;;;;;0.28;0.13;;;11.80;99.90;;;;;;5097641;28;20047;-79
2022/09/20 07:48:24;;;;;;;0.03;0.03;;;11.90;99.90;;;;;;5098436;28;20040;-78
2022/09/20 07:51:11;;;;;;;0.00;0.00;;;11.90;99.90;;;;;;5098676;28;20461;-78
2022/09/20 07:53:38;;;;;;;2.00;0.65;;;12.00;99.90;;;;;;5096697;28;20036;-77
2022/09/20 07:56:06;;;;;;;0.00;0.00;;;12.10;99.90;;;;;;5093391;28;20685;-77
2022/09/20 07:58:34;;;;;;;0.00;0.00;;;12.20;99.90;;;;;;5091418;28;20579;-76
2022/09/20 08:01:02;;;;;;;0.00;0.00;;;12.30;99.90;;;;;;5085486;28;20048;-77
2022/09/20 08:03:29;;;;;;;0.00;0.00;;;12.40;99.90;;;;;;5083602;28;20043;-78
2022/09/20 08:06:07;;;;;;;0.00;0.00;;;12.40;99.90;;;;;;5084108;28;20041;-76
2022/09/20 08:08:38;;;;;;;0.00;0.00;;;12.40;99.90;;;;;;5082089;28;20660;-78
2022/09/20 08:11:10;;;;;;;0.00;0.00;;;12.40;99.90;;;;;;5079114;28;20040;-78
2022/09/20 08:13:37;;;;;;;0.00;0.00;;;12.40;99.90;;;;;;5084287;28;20336;-78
2022/09/20 08:16:06;;;;;;;0.00;0.00;;;12.40;99.90;;;;;;5076750;28;20907;-78
2022/09/20 08:18:35;;;;;;;0.00;0.00;;;12.50;99.90;;;;;;5081612;28;20036;-78
2022/09/20 08:21:06;;;;;;;0.00;0.00;;;12.60;99.90;;;;;;5084692;28;20051;-77
2022/09/20 08:23:40;;;;;;;0.00;0.00;;;12.70;99.90;;;;;;5082723;28;20068;-78
2022/09/20 08:26:11;;;;;;;0.00;0.00;;;12.90;99.90;;;;;;5081449;28;20086;-79
2022/09/20 08:28:37;;;;;;;0.05;0.05;;;12.80;99.90;;;;;;5083307;28;20044;-77
2022/09/20 08:31:05;;;;;;;0.00;0.00;;;12.70;99.90;;;;;;5082477;28;20055;-78
2022/09/20 08:33:32;;;;;;;0.00;0.00;;;12.60;99.90;;;;;;5089643;28;20042;-77
2022/09/20 08:35:58;;;;;;;0.00;0.00;;;12.50;99.90;;;;;;5081996;28;20095;-78
2022/09/20 08:38:26;;;;;;;0.00;0.00;;;12.50;99.90;;;;;;5088803;28;20076;-79
2022/09/20 08:41:00;;;;;;;0.00;0.00;;;12.50;99.90;;;;;;5084892;28;20068;-78
2022/09/20 08:43:34;;;;;;;0.00;0.00;;;12.60;99.90;;;;;;5074451;28;20044;-78
2022/09/20 08:46:02;;;;;;;0.00;0.00;;;13.00;99.90;;;;;;5078603;28;20051;-77
2022/09/20 08:48:32;;;;;;;0.00;0.00;;;13.60;99.90;;;;;;5081532;28;20043;-79
2022/09/20 08:51:00;;;;;;;0.00;0.00;;;14.50;99.90;;;;;;5090158;28;20040;-77
2022/09/20 08:53:27;;;;;;;0.00;0.00;;;15.40;99.90;;;;;;5075600;28;20044;-77
2022/09/20 08:55:58;;;;;;;0.00;0.00;;;16.00;1.00;;;;;;5066348;28;20049;-77
2022/09/20 08:58:25;;;;;;;0.57;0.30;;;16.60;1.00;;;;;;5075404;28;20624;-80
2022/09/20 09:00:51;;;;;;;0.00;0.00;;;17.10;1.00;;;;;;5075383;28;20129;-77
2022/09/20 09:03:17;;;;;;;0.65;0.65;;;17.40;1.00;;;;;;5073424;28;20055;-78
2022/09/20 09:05:54;;;;;;;0.15;0.10;;;17.80;99.90;;;;;;5074461;28;20051;-78
2022/09/20 09:08:27;;;;;;;0.00;0.00;;;18.00;1.00;;;;;;5073775;28;20100;-77
2022/09/20 09:10:55;;;;;;;0.00;0.00;;;17.90;99.90;;;;;;5074988;28;20478;-79
2022/09/20 09:13:24;;;;;;;0.00;0.00;;;18.00;99.90;;;;;;5075021;28;20075;-78
2022/09/20 09:15:56;;;;;;;0.00;0.00;;;18.20;99.90;;;;;;5072460;28;20105;-78
2022/09/20 09:18:30;;;;;;;0.00;0.00;;;18.10;1.00;;;;;;5078377;28;20230;-79
2022/09/20 09:20:57;;;;;;;0.10;0.10;;;18.70;11.60;;;;;;5074653;28;20097;-78
2022/09/20 09:23:25;;;;;;;1.08;0.32;;;18.40;99.90;;;;;;5076467;28;20048;-79
2022/09/20 09:25:53;;;;;;;0.00;0.00;;;18.30;99.90;;;;;;5076035;28;20060;-77
2022/09/20 09:28:28;;;;;;;6.32;0.90;;;18.70;99.90;;;;;;5074772;28;20048;-78
2022/09/20 09:31:12;;;;;;;0.00;0.00;;;19.00;99.90;;;;;;5073438;28;20071;-76
2022/09/20 09:33:44;;;;;;;0.00;0.00;;;17.70;99.90;;;;;;5077565;28;20139;-76
2022/09/20 09:36:14;;;;;;;0.00;0.00;;;16.90;99.90;;;;;;5076708;28;20052;-77
2022/09/20 09:38:45;;;;;;;0.08;0.08;;;15.90;99.90;;;;;;5070931;28;20097;-76
2022/09/20 09:41:16;;;;;;;0.00;0.00;;;15.60;99.90;;;;;;5058333;28;20104;-76
2022/09/20 09:43:42;;;;;;;0.90;0.43;;;15.50;99.90;;;;;;5080047;28;20051;-77
2022/09/20 09:46:22;;;;;;;0.00;0.00;;;15.80;99.90;;;;;;5082195;28;20126;-77
2022/09/20 09:49:18;;;;;;;0.00;0.00;;;16.30;99.90;;;;;;5096102;28;20036;-77
2022/09/20 09:52:04;;;;;;;0.00;0.00;;;17.00;99.90;;;;;;5098141;28;20055;-77
2022/09/20 09:54:39;;;;;;;0.00;0.00;;;17.50;99.90;;;;;;5077864;28;20075;-79
2022/09/20 09:57:32;;;;;;;0.00;0.00;;;17.90;99.90;;;;;;5099849;28;20048;-78
2022/09/20 10:00:11;;;;;;;0.00;0.00;;;18.50;99.90;;;;;;5076275;28;20447;-77
2022/09/20 10:02:55;;;;;;;0.32;0.20;;;18.90;95.80;;;;;;5086406;28;20044;-78
2022/09/20 10:05:35;;;;;;;0.00;0.00;;;19.10;80.10;;;;;;5099723;28;20052;-78
2022/09/20 10:08:01;;;;;;;0.45;0.10;;;18.60;72.50;;;;;;5097139;28;20505;-77
2022/09/20 10:11:10;;;;;;;1.55;0.20;;;18.50;77.90;;;;;;5102292;28;20069;-79
2022/09/20 10:13:56;;;;;;;0.00;0.00;;;19.10;1.00;;;;;;5096716;28;20051;-77
2022/09/20 10:17:02;;;;;;;0.00;0.00;;;19.60;1.00;;;;;;5098475;28;20052;-75
2022/09/20 10:19:45;;;;;;;0.00;0.00;;;19.90;99.90;;;;;;5100025;28;20033;-77
2022/09/20 10:22:23;;;;;;;0.00;0.00;;;19.60;99.90;;;;;;5101689;28;20059;-78
2022/09/20 10:25:13;;;;;;;2.00;0.77;;;19.00;99.90;;;;;;5081463;28;20052;-76
2022/09/20 10:27:48;;;;;;;0.00;0.00;;;19.30;99.90;;;;;;5082150;28;20048;-78
2022/09/20 10:30:19;;;;;;;0.00;0.00;;;19.30;99.90;;;;;;5083689;28;20037;-77
2022/09/20 10:33:02;;;;;;;0.00;0.00;;;18.80;99.90;;;;;;5096858;28;20510;-77
2022/09/20 10:35:51;;;;;;;0.80;0.52;;;18.30;99.90;;;;;;5100580;28;20055;-77
2022/09/20 10:38:38;;;;;;;0.10;0.10;;;18.60;99.90;;;;;;5080409;28;20055;-78
2022/09/20 10:44:35;;;;;;;4.07;0.75;;;18.80;99.90;;;;;;5082568;28;20108;-79
2022/09/20 10:47:18;;;;;;;0.55;0.30;;;18.60;99.90;;;;;;5083724;28;20063;-77
2022/09/20 10:49:50;;;;;;;13.05;1.08;;;18.60;99.90;;;;;;5085030;28;20667;-78
2022/09/20 10:52:43;;;;;;;0.05;0.05;;;18.40;99.90;;;;;;5101460;28;20052;-78
2022/09/20 10:55:46;;;;;;;0.10;0.10;;;18.20;99.90;;;;;;5106386;28;20024;-79
2022/09/20 10:58:34;;;;;;;1.25;0.70;;;18.00;99.90;;;;;;5084992;28;20090;-78
2022/09/20 11:01:30;;;;;;;0.10;0.10;;;18.00;99.90;;;;;;5102510;28;20059;-77
2022/09/20 11:04:31;;;;;;;0.43;0.25;;;17.90;99.90;;;;;;5103567;28;20095;-76
2022/09/20 11:07:15;;;;;;;2.53;0.50;;;18.00;99.90;;;;;;5104385;28;20047;-79
2022/09/20 11:09:49;;;;;;;0.45;0.30;;;18.00;99.90;;;;;;5104160;28;20504;-78
2022/09/20 11:12:56;;;;;;;0.22;0.22;;;18.20;99.90;;;;;;5104527;28;20040;-78
2022/09/20 11:15:38;;;;;;;0.00;0.00;;;18.60;99.90;;;;;;5062750;28;20052;-77
2022/09/20 11:18:22;;;;;;;0.00;0.00;;;18.10;99.90;;;;;;5098228;28;20070;-78
2022/09/20 11:20:59;;;;;;;0.00;0.00;;;18.00;99.90;;;;;;5098567;28;20099;-78
2022/09/20 11:23:50;;;;;;;0.00;0.00;;;18.20;99.90;;;;;;5101957;28;20020;-78
2022/09/20 11:26:23;;;;;;;0.50;0.40;;;18.60;99.90;;;;;;5103595;28;20074;-77
2022/09/20 11:28:53;;;;;;;0.00;0.00;;;18.80;99.90;;;;;;5103215;28;20032;-78
2022/09/20 11:31:23;;;;;;;0.45;0.20;;;18.90;99.90;;;;;;5104018;28;20048;-78
2022/09/20 11:34:21;;;;;;;0.00;0.00;;;18.70;99.90;;;;;;5106163;28;20062;-77
2022/09/20 11:36:57;;;;;;;0.30;0.20;;;18.50;99.90;;;;;;5102993;28;20043;-77
2022/09/20 11:39:34;;;;;;;2.22;0.73;;;17.90;99.90;;;;;;5082618;28;20051;-77
2022/09/20 11:42:02;;;;;;;0.00;0.00;;;17.50;99.90;;;;;;5097058;28;20058;-77
2022/09/20 11:44:28;;;;;;;0.00;0.00;;;17.60;1.00;;;;;;5103878;28;20042;-76
2022/09/20 11:47:02;;;;;;;0.00;0.00;;;17.90;1.00;;;;;;5104124;28;20048;-77
2022/09/20 11:50:03;;;;;;;0.25;0.13;;;17.70;99.90;;;;;;5103824;28;20048;-78
2022/09/20 11:52:47;;;;;;;0.00;0.00;;;17.70;99.90;;;;;;5102248;28;20032;-77
2022/09/20 11:55:22;;;;;;;0.10;0.10;;;18.20;99.90;;;;;;5083801;28;20048;-79
2022/09/20 11:58:06;;;;;;;0.00;0.00;;;18.50;99.90;;;;;;5069383;28;20099;-75
2022/09/20 12:00:36;;;;;;;0.10;0.10;;;18.70;99.90;;;;;;5102222;28;20043;-78
2022/09/20 12:03:06;;;;;;;0.68;0.45;;;18.50;99.90;;;;;;5105824;28;20121;-77
2022/09/20 12:05:38;;;;;;;0.15;0.05;;;18.30;99.90;;;;;;5103141;28;20600;-79
2022/09/20 12:08:16;;;;;;;0.52;0.35;;;18.40;99.90;;;;;;5100069;28;20094;-78
2022/09/20 12:11:01;;;;;;;0.00;0.00;;;19.10;99.90;;;;;;5103296;28;20024;-78
2022/09/20 12:13:27;;;;;;;0.30;0.30;;;19.50;99.90;;;;;;5102572;28;20059;-78
2022/09/20 12:16:07;;;;;;;2.55;0.47;;;19.10;99.90;;;;;;5103811;28;20253;-77
2022/09/20 12:18:32;;;;;;;0.20;0.20;;;19.50;99.90;;;;;;5104588;28;20040;-77
2022/09/20 12:21:02;;;;;;;2.22;0.20;;;20.10;99.90;;;;;;5101106;28;20044;-78
2022/09/20 12:23:40;;;;;;;0.00;0.00;;;20.60;99.90;;;;;;5100114;28;20269;-78
2022/09/20 12:26:36;;;;;;;0.00;0.00;;;21.30;99.90;;;;;;5096182;28;20048;-78
2022/09/20 12:29:22;;;;;;;1.85;0.50;;;21.70;99.90;;;;;;5104086;28;20058;-80
2022/09/20 12:31:49;;;;;;;0.15;0.15;;;21.70;99.90;;;;;;5082123;28;20063;-78
2022/09/20 12:34:17;;;;;;;0.85;0.38;;;21.50;99.90;;;;;;5081218;28;20502;-78
2022/09/20 12:37:04;;;;;;;0.00;0.00;;;20.80;99.90;;;;;;5098718;28;21031;-78
2022/09/20 12:39:37;;;;;;;0.10;0.10;;;19.40;99.90;;;;;;5097759;28;20046;-79
2022/09/20 12:42:23;;;;;;;0.00;0.00;;;18.70;99.90;;;;;;5102716;28;20058;-79
2022/09/20 12:44:49;;;;;;;0.00;0.00;;;18.30;99.90;;;;;;5100762;28;20428;-78
2022/09/20 12:47:16;;;;;;;0.22;0.15;;;18.10;99.90;;;;;;5101603;28;20032;-79
2022/09/20 12:55:30;;;;;;;0.00;0.00;;;19.50;99.90;;;;;;5100144;28;20032;-77
2022/09/20 12:58:10;;;;;;;0.08;0.08;;;20.80;99.90;;;;;;5097516;28;20068;-79
2022/09/20 13:00:43;;;;;;;0.00;0.00;;;21.30;99.90;;;;;;5098859;28;20111;-76
2022/09/20 13:03:09;;;;;;;0.22;0.22;;;22.00;99.90;;;;;;5102088;28;20044;-78
2022/09/20 13:05:40;;;;;;;0.32;0.25;;;22.30;99.90;;;;;;5097463;28;20078;-78
2022/09/20 13:08:23;;;;;;;0.00;0.00;;;22.10;99.90;;;;;;5098384;28;20120;-77
2022/09/20 13:11:18;;;;;;;0.13;0.13;;;21.30;99.90;;;;;;5101204;28;20044;-78
2022/09/20 13:13:56;;;;;;;1.13;0.50;;;20.90;99.90;;;;;;5100622;28;20051;-77
2022/09/20 13:16:41;;;;;;;0.30;0.25;;;20.80;99.90;;;;;;5114390;28;20068;-78
2022/09/20 13:19:16;;;;;;;1.80;0.52;;;20.30;99.90;;;;;;5087888;28;20043;-79
2022/09/20 13:22:07;;;;;;;0.45;0.13;;;21.00;99.90;;;;;;5100569;28;20036;-78
2022/09/20 13:24:41;;;;;;;0.08;0.03;;;21.20;99.90;;;;;;5101634;28;20055;-80
2022/09/20 13:27:33;;;;;;;0.10;0.10;;;21.20;99.90;;;;;;5101812;28;20067;-78
2022/09/20 13:30:31;;;;;;;0.88;0.55;;;21.50;99.90;;;;;;5100272;28;20060;-77
2022/09/20 13:33:21;;;;;;;0.43;0.30;;;22.00;99.90;;;;;;5087058;28;20129;-77
2022/09/20 13:35:49;;;;;;;0.00;0.00;;;22.60;99.90;;;;;;5077058;28;20037;-78
2022/09/20 13:38:23;;;;;;;0.10;0.10;;;23.00;99.90;;;;;;5102152;28;20473;-78
2022/09/20 13:40:51;;;;;;;2.05;0.35;;;21.60;99.90;;;;;;5084254;28;20045;-79
2022/09/20 13:43:35;;;;;;;0.00;0.00;;;20.60;99.90;;;;;;5088964;28;20075;-79
2022/09/20 13:46:09;;;;;;;0.00;0.00;;;19.40;99.90;;;;;;5104398;28;20047;-78
2022/09/20 13:48:35;;;;;;;3.38;0.63;;;18.50;99.90;;;;;;5084383;28;20059;-79
2022/09/20 13:51:01;;;;;;;1.35;0.47;;;18.20;99.90;;;;;;5099326;28;20028;-76
2022/09/20 13:53:29;;;;;;;0.00;0.00;;;18.00;99.90;;;;;;5103076;28;20032;-77
2022/09/20 13:55:55;;;;;;;0.00;0.00;;;17.80;99.90;;;;;;5104455;28;20043;-78
2022/09/20 13:58:30;;;;;;;0.08;0.08;;;17.80;99.90;;;;;;5104134;28;20048;-78
2022/09/20 14:01:03;;;;;;;3.00;0.47;;;18.60;99.90;;;;;;5103953;28;20088;-78